createdAt,value
2022-09-28T00:01:46.742Z,31.50
2022-09-28T00:05:04.968Z,31.38
2022-09-28T00:08:31.294Z,31.30
2022-09-28T00:11:49.401Z,31.23
2022-09-28T00:15:16.604Z,31.14
2022-09-28T00:18:17.734Z,31.04
2022-09-28T00:21:48.921Z,30.93
2022-09-28T00:25:09.097Z,30.77
2022-09-28T00:28:10.287Z,30.73
2022-09-28T00:31:29.540Z,30.71
2022-09-28T00:34:54.800Z,30.66
2022-09-28T00:38:21.860Z,30.60
2022-09-28T00:41:32.159Z,30.54
2022-09-28T00:44:46.284Z,30.47
2022-09-28T00:48:07.621Z,30.38
2022-09-28T00:51:27.984Z,30.28
2022-09-28T00:54:53.282Z,30.13
2022-09-28T00:58:00.109Z,30.00
2022-09-28T01:01:25.269Z,29.93
2022-09-28T01:04:17.092Z,29.84
2022-09-28T01:07:34.459Z,29.76
2022-09-28T01:11:00.169Z,29.65
2022-09-28T01:14:25.306Z,29.53
2022-09-28T01:17:55.853Z,29.40
2022-09-28T01:21:24.630Z,29.32
2022-09-28T01:27:46.605Z,29.15
2022-09-28T01:31:18.261Z,29.06
2022-09-28T01:34:36.266Z,28.92
2022-09-28T01:37:52.086Z,28.78
2022-09-28T01:41:18.078Z,28.68
2022-09-28T01:44:43.228Z,28.57
2022-09-28T01:47:51.537Z,28.44
2022-09-28T01:51:16.597Z,28.26
2022-09-28T01:54:40.741Z,28.13
2022-09-28T01:58:23.714Z,28.01
2022-09-28T02:01:42.166Z,27.86
2022-09-28T02:05:08.102Z,27.76
2022-09-28T02:08:03.647Z,27.65
2022-09-28T02:11:11.564Z,27.55
2022-09-28T02:14:44.244Z,27.46
2022-09-28T02:18:02.307Z,27.33
2022-09-28T02:21:27.409Z,27.18
2022-09-28T02:25:19.897Z,27.04
2022-09-28T02:28:19.358Z,26.93
2022-09-28T02:31:44.449Z,26.83
2022-09-28T02:34:50.915Z,26.70
2022-09-28T02:37:39.356Z,26.65
2022-09-28T02:40:54.566Z,26.57
2022-09-28T02:44:11.748Z,26.46
2022-09-28T02:47:36.270Z,26.37
2022-09-28T02:50:28.325Z,26.26
2022-09-28T02:53:35.520Z,26.13
2022-09-28T02:57:14.569Z,25.96
2022-09-28T03:00:36.669Z,25.74
2022-09-28T03:03:39.025Z,25.53
2022-09-28T03:06:32.108Z,25.33
2022-09-28T03:09:35.090Z,25.17
2022-09-28T03:13:00.275Z,25.01
2022-09-28T03:16:09.863Z,24.85
2022-09-28T03:18:41.958Z,24.74
2022-09-28T03:21:42.917Z,24.64
2022-09-28T03:24:58.093Z,24.46
2022-09-28T03:27:03.563Z,24.33
2022-09-28T03:30:28.616Z,24.23
2022-09-28T03:33:28.773Z,24.09
2022-09-28T03:36:15.017Z,23.98
2022-09-28T03:38:43.662Z,23.88
2022-09-28T03:41:26.192Z,23.80
2022-09-28T03:43:44.919Z,23.73
2022-09-28T03:46:21.367Z,23.64
2022-09-28T03:48:51.105Z,23.53
2022-09-28T03:51:22.066Z,23.45
2022-09-28T03:53:45.452Z,23.37
2022-09-28T03:56:00.701Z,23.27
2022-09-28T03:59:25.719Z,23.16
2022-09-28T04:02:30.120Z,23.00
2022-09-28T04:05:48.469Z,22.86
2022-09-28T04:08:36.429Z,22.74
2022-09-28T04:11:26.581Z,22.64
2022-09-28T04:13:53.191Z,22.56
2022-09-28T04:16:39.450Z,22.49
2022-09-28T04:19:11.217Z,22.34
2022-09-28T04:22:38.864Z,22.26
2022-09-28T04:25:21.109Z,22.17
2022-09-28T04:27:56.382Z,22.07
2022-09-28T04:30:23.678Z,21.98
2022-09-28T04:33:48.711Z,21.89
2022-09-28T04:36:20.059Z,21.81
2022-09-28T04:39:28.559Z,21.74
2022-09-28T04:42:46.286Z,21.69
2022-09-28T04:44:58.270Z,21.59
2022-09-28T04:48:05.962Z,21.53
2022-09-28T04:51:10.096Z,21.45
2022-09-28T04:53:18.604Z,21.37
2022-09-28T04:55:37.636Z,21.31
2022-09-28T04:57:55.142Z,21.24
2022-09-28T05:00:15.402Z,21.19
2022-09-28T05:02:42.819Z,21.11
2022-09-28T05:05:51.635Z,21.00
2022-09-28T05:08:27.921Z,20.95
2022-09-28T05:11:20.282Z,20.89
2022-09-28T05:13:50.901Z,20.81
2022-09-28T05:16:25.974Z,20.74
2022-09-28T05:19:49.765Z,20.67
2022-09-28T05:22:44.166Z,20.60
2022-09-28T05:25:33.272Z,20.53
2022-09-28T05:29:01.760Z,20.44
2022-09-28T05:32:24.844Z,20.32
2022-09-28T05:35:21.847Z,20.23
2022-09-28T05:37:49.944Z,20.15
2022-09-28T05:40:04.592Z,20.09
2022-09-28T05:42:22.857Z,20.01
2022-09-28T05:44:32.281Z,19.95
2022-09-28T05:47:37.631Z,19.90
2022-09-28T05:49:55.855Z,19.78
2022-09-28T05:52:10.805Z,19.70
2022-09-28T05:54:16.335Z,19.63
2022-09-28T05:56:41.865Z,19.57
2022-09-28T05:58:57.062Z,19.53
2022-09-28T06:01:26.497Z,19.47
2022-09-28T06:03:38.916Z,19.42
2022-09-28T06:05:48.106Z,19.40
2022-09-28T06:07:58.809Z,19.38
2022-09-28T06:10:04.147Z,19.34
2022-09-28T06:12:54.908Z,19.28
2022-09-28T06:16:11.122Z,19.24
2022-09-28T06:18:36.832Z,19.18
2022-09-28T06:20:57.428Z,19.13
2022-09-28T06:23:49.002Z,19.11
2022-09-28T06:26:14.656Z,19.05
2022-09-28T06:29:19.939Z,19.01
2022-09-28T06:31:35.514Z,18.97
2022-09-28T06:34:55.471Z,18.92
2022-09-28T06:37:08.045Z,18.86
2022-09-28T06:39:17.098Z,18.84
2022-09-28T06:42:22.173Z,18.78
2022-09-28T06:45:04.927Z,18.72
2022-09-28T06:47:42.299Z,18.65
2022-09-28T06:50:14.897Z,18.63
2022-09-28T06:53:43.478Z,18.59
2022-09-28T06:56:11.080Z,18.49
2022-09-28T06:58:20.033Z,18.43
2022-09-28T07:00:37.143Z,18.38
2022-09-28T07:02:53.280Z,18.34
2022-09-28T07:05:16.745Z,18.31
2022-09-28T07:07:59.857Z,18.28
2022-09-28T07:10:33.055Z,18.24
2022-09-28T07:12:52.837Z,18.22
2022-09-28T07:15:15.600Z,18.19
2022-09-28T07:17:54.979Z,18.17
2022-09-28T07:20:47.488Z,18.15
2022-09-28T07:23:17.082Z,18.10
2022-09-28T07:25:45.954Z,18.06
2022-09-28T07:28:07.469Z,18.03
2022-09-28T07:30:35.795Z,17.99
2022-09-28T07:32:48.866Z,17.95
2022-09-28T07:35:23.483Z,17.92
2022-09-28T07:37:30.222Z,17.88
2022-09-28T07:40:00.335Z,17.85
2022-09-28T07:42:17.210Z,17.82
2022-09-28T07:44:22.109Z,17.79
2022-09-28T07:46:31.523Z,17.76
2022-09-28T07:49:15.874Z,17.74
2022-09-28T07:51:52.704Z,17.69
2022-09-28T07:54:06.994Z,17.68
2022-09-28T07:56:41.368Z,17.65
2022-09-28T07:59:57.976Z,17.63
2022-09-28T08:02:45.217Z,17.57
2022-09-28T08:05:26.242Z,17.53
2022-09-28T08:07:37.343Z,17.50
2022-09-28T08:10:19.007Z,17.45
2022-09-28T08:13:27.555Z,17.43
2022-09-28T08:15:59.714Z,17.38
2022-09-28T08:18:39.183Z,17.37
2022-09-28T08:21:32.651Z,17.33
2022-09-28T08:23:44.727Z,17.30
2022-09-28T08:26:40.493Z,17.26
2022-09-28T08:29:16.532Z,17.26
2022-09-28T08:31:30.351Z,17.24
2022-09-28T08:33:56.685Z,17.23
2022-09-28T08:36:32.746Z,17.19
2022-09-28T08:39:01.441Z,17.14
2022-09-28T08:42:18.984Z,17.09
2022-09-28T08:44:49.094Z,17.04
2022-09-28T08:47:41.620Z,17.00
2022-09-28T08:50:51.266Z,16.94
2022-09-28T08:53:36.966Z,16.86
2022-09-28T08:56:08.518Z,16.78
2022-09-28T08:58:45.705Z,16.74
2022-09-28T09:00:55.989Z,16.68
2022-09-28T09:03:12.997Z,16.66
2022-09-28T09:06:05.436Z,16.62
2022-09-28T09:09:32.630Z,16.60
2022-09-28T09:12:29.016Z,16.54
2022-09-28T09:15:09.059Z,16.50
2022-09-28T09:17:39.471Z,16.48
2022-09-28T09:20:51.481Z,16.43
2022-09-28T09:23:28.820Z,16.39
2022-09-28T09:26:56.846Z,16.36
2022-09-28T09:29:48.968Z,16.31
2022-09-28T09:32:40.805Z,16.25
2022-09-28T09:35:29.062Z,16.21
2022-09-28T09:38:11.389Z,16.20
2022-09-28T09:40:50.958Z,16.19
2022-09-28T09:44:22.999Z,16.16
2022-09-28T09:46:48.042Z,16.13
2022-09-28T09:49:08.633Z,16.12
2022-09-28T09:51:41.867Z,16.10
2022-09-28T09:54:01.331Z,16.08
2022-09-28T09:56:55.704Z,16.06
2022-09-28T09:59:34.040Z,16.03
2022-09-28T10:01:44.282Z,16.02
2022-09-28T10:04:35.235Z,16.02
2022-09-28T10:07:05.235Z,16.01
2022-09-28T10:09:58.487Z,15.99
2022-09-28T10:12:26.432Z,15.97
2022-09-28T10:14:42.925Z,15.94
2022-09-28T10:16:53.811Z,15.94
2022-09-28T10:19:59.735Z,15.92
2022-09-28T10:22:28.460Z,15.92
2022-09-28T10:24:45.624Z,15.92
2022-09-28T10:26:59.898Z,15.92
2022-09-28T10:29:13.627Z,15.92
2022-09-28T10:31:38.356Z,15.92
2022-09-28T10:34:01.888Z,15.92
2022-09-28T10:36:17.913Z,15.93
2022-09-28T10:38:24.902Z,15.93
2022-09-28T10:40:55.617Z,15.90
2022-09-28T10:43:38.976Z,15.88
2022-09-28T10:45:47.501Z,15.83
2022-09-28T10:47:52.696Z,15.78
2022-09-28T10:49:59.284Z,15.75
2022-09-28T10:52:09.002Z,15.71
2022-09-28T10:54:28.960Z,15.69
2022-09-28T10:56:40.722Z,15.69
2022-09-28T10:58:47.267Z,15.67
2022-09-28T11:01:04.544Z,15.66
2022-09-28T11:03:50.105Z,15.65
2022-09-28T11:06:11.980Z,15.63
2022-09-28T11:08:24.061Z,15.66
2022-09-28T11:11:02.072Z,15.66
2022-09-28T11:13:10.739Z,15.67
2022-09-28T11:15:25.423Z,15.65
2022-09-28T11:17:42.310Z,15.63
2022-09-28T11:19:58.315Z,15.61
2022-09-28T11:22:03.526Z,15.60
2022-09-28T11:24:24.967Z,15.59
2022-09-28T11:26:43.570Z,15.60
2022-09-28T11:28:55.388Z,15.62
2022-09-28T11:31:10.157Z,15.63
2022-09-28T11:33:48.308Z,15.61
2022-09-28T11:36:26.280Z,15.61
2022-09-28T11:38:42.120Z,15.60
2022-09-28T11:41:29.496Z,15.58
2022-09-28T11:43:46.113Z,15.57
2022-09-28T11:46:14.784Z,15.57
2022-09-28T11:48:34.016Z,15.57
2022-09-28T11:51:02.504Z,15.55
2022-09-28T11:53:37.054Z,15.53
2022-09-28T11:56:33.274Z,15.51
2022-09-28T11:58:44.162Z,15.51
2022-09-28T12:00:55.345Z,15.48
2022-09-28T12:03:37.029Z,15.45
2022-09-28T12:05:50.013Z,15.42
2022-09-28T12:08:14.625Z,15.36
2022-09-28T12:11:10.182Z,15.31
2022-09-28T12:13:56.490Z,15.27
2022-09-28T12:16:27.588Z,15.22
2022-09-28T12:19:07.256Z,15.17
2022-09-28T12:21:52.344Z,15.15
2022-09-28T12:24:11.267Z,15.14
2022-09-28T12:27:03.217Z,15.14
2022-09-28T12:29:15.548Z,15.15
2022-09-28T12:31:35.170Z,15.16
2022-09-28T12:33:42.340Z,15.17
2022-09-28T12:36:12.591Z,15.18
2022-09-28T12:39:18.028Z,15.15
2022-09-28T12:41:31.741Z,15.17
2022-09-28T12:44:19.516Z,15.16
2022-09-28T12:46:50.051Z,15.15
2022-09-28T12:49:51.437Z,15.15
2022-09-28T12:51:48.483Z,15.14
2022-09-28T12:54:15.323Z,15.13
2022-09-28T12:56:29.444Z,15.11
2022-09-28T12:58:49.299Z,15.11
2022-09-28T13:01:33.644Z,15.10
2022-09-28T13:04:00.057Z,15.10
2022-09-28T13:06:37.770Z,15.09
2022-09-28T13:08:55.783Z,15.08
2022-09-28T13:11:33.920Z,15.05
2022-09-28T13:14:22.731Z,15.08
2022-09-28T13:16:53.630Z,15.07
2022-09-28T13:19:32.708Z,15.07
2022-09-28T13:22:19.004Z,15.07
2022-09-28T13:24:33.472Z,15.08
2022-09-28T13:26:45.516Z,15.07
2022-09-28T13:28:57.859Z,15.07
2022-09-28T13:31:04.759Z,15.08
2022-09-28T13:33:19.768Z,15.07
2022-09-28T13:35:25.374Z,15.08
2022-09-28T13:37:35.481Z,15.09
2022-09-28T13:44:54.560Z,15.09
2022-09-28T13:47:19.993Z,15.07
2022-09-28T13:49:51.342Z,15.06
2022-09-28T13:52:10.237Z,15.04
2022-09-28T13:54:26.808Z,15.02
2022-09-28T13:57:02.378Z,15.02
2022-09-28T13:59:29.337Z,15.02
2022-09-28T14:01:41.807Z,15.02
2022-09-28T14:04:21.222Z,15.04
2022-09-28T14:06:29.869Z,15.08
2022-09-28T14:09:13.728Z,15.10
2022-09-28T14:11:25.708Z,15.12
2022-09-28T14:13:43.260Z,15.17
2022-09-28T14:15:48.186Z,15.20
2022-09-28T14:18:21.445Z,15.22
2022-09-28T14:20:28.418Z,15.25
2022-09-28T14:22:58.145Z,15.28
2022-09-28T14:25:24.859Z,15.31
2022-09-28T14:27:32.901Z,15.34
2022-09-28T14:29:40.381Z,15.35
2022-09-28T14:31:45.722Z,15.37
2022-09-28T14:34:01.584Z,15.38
2022-09-28T14:36:43.107Z,15.39
2022-09-28T14:39:09.511Z,15.39
2022-09-28T14:41:34.916Z,15.39
2022-09-28T14:43:45.805Z,15.41
2022-09-28T14:45:53.066Z,15.42
2022-09-28T14:48:19.494Z,15.44
2022-09-28T14:50:44.419Z,15.46
2022-09-28T14:53:04.791Z,15.48
2022-09-28T14:55:15.060Z,15.50
2022-09-28T14:57:23.577Z,15.54
2022-09-28T15:02:26.134Z,15.60
2022-09-28T15:04:39.517Z,15.62
2022-09-28T15:06:49.758Z,15.65
2022-09-28T15:08:54.610Z,15.67
2022-09-28T15:11:03.061Z,15.70
2022-09-28T15:13:22.361Z,15.72
2022-09-28T15:15:32.647Z,15.76
2022-09-28T15:17:40.341Z,15.79
2022-09-28T15:20:18.269Z,15.83
2022-09-28T15:22:23.665Z,15.86
2022-09-28T15:24:34.556Z,15.87
2022-09-28T15:26:40.165Z,15.88
2022-09-28T15:28:46.155Z,15.89
2022-09-28T15:30:52.736Z,15.88
2022-09-28T15:33:19.039Z,15.87
2022-09-28T15:35:26.833Z,15.90
2022-09-28T15:37:40.664Z,15.91
2022-09-28T15:39:48.488Z,15.94
2022-09-28T15:41:54.066Z,15.96
2022-09-28T15:44:12.239Z,15.97
2022-09-28T15:46:26.669Z,15.99
2022-09-28T15:49:12.992Z,15.98
2022-09-28T15:51:21.740Z,15.98
2022-09-28T15:53:31.776Z,15.99
2022-09-28T15:55:42.885Z,16.00
2022-09-28T15:57:48.364Z,16.01
2022-09-28T15:59:59.928Z,16.01
2022-09-28T16:02:36.777Z,16.02
2022-09-28T16:04:56.509Z,16.02
2022-09-28T16:07:19.371Z,16.05
2022-09-28T16:09:40.910Z,16.07
2022-09-28T16:11:51.537Z,16.07
2022-09-28T16:14:07.724Z,16.07
2022-09-28T16:16:17.710Z,16.08
2022-09-28T16:18:23.969Z,16.09
2022-09-28T16:20:36.755Z,16.10
2022-09-28T16:22:44.337Z,16.11
2022-09-28T16:25:25.436Z,16.11
2022-09-28T16:27:42.544Z,16.14
2022-09-28T16:30:13.669Z,16.12
2022-09-28T16:32:28.313Z,16.15
2022-09-28T16:34:33.661Z,16.15
2022-09-28T16:36:45.744Z,16.18
2022-09-28T16:38:50.905Z,16.21
2022-09-28T16:41:02.493Z,16.23
2022-09-28T16:43:09.231Z,16.23
2022-09-28T16:45:20.729Z,16.24
2022-09-28T16:47:25.935Z,16.23
2022-09-28T16:49:34.396Z,16.26
2022-09-28T16:51:40.539Z,16.28
2022-09-28T16:54:04.755Z,16.31
2022-09-28T16:56:19.887Z,16.34
2022-09-28T16:58:25.649Z,16.39
2022-09-28T17:00:33.872Z,16.43
2022-09-28T17:02:47.098Z,16.49
2022-09-28T17:04:52.621Z,16.58
2022-09-28T17:07:00.606Z,16.67
2022-09-28T17:09:25.428Z,16.74
2022-09-28T17:11:33.820Z,16.83
2022-09-28T17:13:45.520Z,16.87
2022-09-28T17:15:50.798Z,16.91
2022-09-28T17:17:56.219Z,16.91
2022-09-28T17:20:02.601Z,16.94
2022-09-28T17:22:47.939Z,16.93
2022-09-28T17:25:13.406Z,16.94
2022-09-28T17:27:22.026Z,16.96
2022-09-28T17:29:50.738Z,16.98
2022-09-28T17:32:12.874Z,16.98
2022-09-28T17:34:55.886Z,17.01
2022-09-28T17:45:48.277Z,17.01
2022-09-28T17:47:53.943Z,17.02
2022-09-28T17:49:59.638Z,17.04
2022-09-28T17:52:05.941Z,17.06
2022-09-28T17:54:21.601Z,17.09
2022-09-28T17:56:32.794Z,17.06
2022-09-28T17:58:41.415Z,17.09
2022-09-28T18:00:54.098Z,17.09
2022-09-28T18:03:02.908Z,17.11
2022-09-28T18:05:08.534Z,17.13
2022-09-28T18:07:13.664Z,17.13
2022-09-28T18:09:25.489Z,17.13
2022-09-28T18:11:32.491Z,17.15
2022-09-28T18:13:37.501Z,17.16
2022-09-28T18:15:46.021Z,17.17
2022-09-28T18:17:51.175Z,17.19
2022-09-28T18:19:56.995Z,17.19
2022-09-28T18:22:02.027Z,17.19
2022-09-28T18:24:14.736Z,17.22
2022-09-28T18:26:20.050Z,17.27
2022-09-28T18:28:25.767Z,17.33
2022-09-28T18:30:30.604Z,17.36
2022-09-28T18:32:39.784Z,17.40
2022-09-28T18:34:56.406Z,17.39
2022-09-28T18:37:06.284Z,17.44
2022-09-28T18:39:11.334Z,17.45
2022-09-28T18:41:16.878Z,17.44
2022-09-28T18:43:21.817Z,17.49
2022-09-28T18:45:26.831Z,17.52
2022-09-28T18:47:31.675Z,17.56
2022-09-28T18:49:46.552Z,17.61
2022-09-28T18:51:52.812Z,17.66
2022-09-28T18:53:57.901Z,17.71
2022-09-28T18:56:24.097Z,17.75
2022-09-28T18:58:29.730Z,17.80
2022-09-28T19:01:13.567Z,17.80
2022-09-28T19:03:52.953Z,17.84
2022-09-28T19:06:41.042Z,17.93
2022-09-28T19:08:51.690Z,18.00
2022-09-28T19:11:16.640Z,18.06
2022-09-28T19:13:21.670Z,18.15
2022-09-28T19:15:26.541Z,18.20
2022-09-28T19:17:35.054Z,18.25
2022-09-28T19:19:44.321Z,18.27
2022-09-28T19:21:49.321Z,18.32
2022-09-28T19:23:55.808Z,18.36
2022-09-28T19:26:17.068Z,18.38
2022-09-28T19:28:22.642Z,18.40
2022-09-28T19:33:11.872Z,18.41
2022-09-28T19:35:56.868Z,18.47
2022-09-28T19:38:32.972Z,18.53
2022-09-28T19:40:59.831Z,18.56
2022-09-28T19:43:16.207Z,18.60
2022-09-28T19:45:31.250Z,18.63
2022-09-28T19:47:56.136Z,18.64
2022-09-28T19:50:29.588Z,18.70
2022-09-28T19:52:37.920Z,18.76
2022-09-28T19:55:19.017Z,18.83
2022-09-28T19:57:40.759Z,18.89
2022-09-28T20:00:02.090Z,18.91
2022-09-28T20:02:27.632Z,18.96
2022-09-28T20:05:18.649Z,19.03
2022-09-28T20:10:55.019Z,19.13
2022-09-28T20:13:20.210Z,19.23
2022-09-28T20:16:05.881Z,19.28
2022-09-28T20:18:12.594Z,19.31
2022-09-28T20:20:42.481Z,19.35
2022-09-28T20:22:58.497Z,19.38
2022-09-28T20:25:28.020Z,19.37
2022-09-28T20:27:36.534Z,19.43
2022-09-28T20:30:25.083Z,19.46
2022-09-28T20:32:40.326Z,19.48
2022-09-28T20:34:56.707Z,19.50
2022-09-28T20:37:18.788Z,19.52
2022-09-28T20:39:45.057Z,19.55
2022-09-28T20:41:50.765Z,19.58
2022-09-28T20:44:04.863Z,19.60
2022-09-28T20:46:13.893Z,19.62
2022-09-28T20:48:40.139Z,19.63
2022-09-28T20:50:45.587Z,19.61
2022-09-28T20:53:14.239Z,19.58
2022-09-28T20:55:39.967Z,19.59
2022-09-28T20:57:45.715Z,19.59
2022-09-28T20:59:54.747Z,19.59
2022-09-28T21:03:11.084Z,19.59
2022-09-28T21:05:37.488Z,19.58
2022-09-28T21:07:46.101Z,19.57
2022-09-28T21:24:45.267Z,19.92
2022-09-28T21:27:00.560Z,19.92
2022-09-28T21:29:59.596Z,19.95
2022-09-28T21:32:25.748Z,20.04
2022-09-28T21:34:53.045Z,20.11
2022-09-28T21:37:15.669Z,20.18
2022-09-28T21:40:24.637Z,20.22
2022-09-28T21:46:37.529Z,20.42
2022-09-28T21:49:46.264Z,20.48
2022-09-28T21:52:22.091Z,20.53
2022-09-28T21:55:10.897Z,20.58
2022-09-28T21:58:25.427Z,20.68
2022-09-28T22:00:37.955Z,20.88
2022-09-28T22:02:44.283Z,20.97
2022-09-28T22:04:49.868Z,21.04
2022-09-28T22:06:58.022Z,21.14
2022-09-28T22:09:27.918Z,21.20
2022-09-28T22:12:13.149Z,21.24
2022-09-28T22:14:50.586Z,21.27
2022-09-28T22:16:55.785Z,21.28
2022-09-28T22:19:13.941Z,21.29
2022-09-28T22:22:19.283Z,21.43
2022-09-28T22:24:44.735Z,21.58
2022-09-28T22:26:53.296Z,21.67
2022-09-28T22:29:11.449Z,21.75
2022-09-28T22:31:30.024Z,21.77
2022-09-28T22:33:55.704Z,21.75
2022-09-28T22:36:13.982Z,21.72
2022-09-28T22:38:28.614Z,21.69
2022-09-28T22:40:50.985Z,21.62
2022-09-28T22:43:07.359Z,21.58
2022-09-28T22:45:23.533Z,21.54
2022-09-28T22:48:00.569Z,21.51
2022-09-28T22:50:55.421Z,21.50
2022-09-28T22:53:14.519Z,21.51
2022-09-28T22:55:44.735Z,21.53
2022-09-28T22:58:40.956Z,21.56
2022-09-28T23:00:51.164Z,21.59
2022-09-28T23:03:26.455Z,21.63
2022-09-28T23:06:07.198Z,21.63
2022-09-28T23:08:23.674Z,21.62
2022-09-28T23:10:49.488Z,21.62
2022-09-28T23:12:55.616Z,21.63
2022-09-28T23:15:33.250Z,21.63
2022-09-28T23:18:21.607Z,21.60
2022-09-28T23:21:00.548Z,21.57
2022-09-28T23:23:05.818Z,21.57
2022-09-28T23:25:21.358Z,21.57
2022-09-28T23:27:43.691Z,21.59
2022-09-28T23:30:09.431Z,21.58
2022-09-28T23:32:29.762Z,21.58
2022-09-28T23:34:51.736Z,21.55
2022-09-28T23:36:59.817Z,21.49
2022-09-28T23:39:05.370Z,21.42
2022-09-28T23:41:21.921Z,21.37
2022-09-28T23:43:48.099Z,21.33
2022-09-28T23:46:13.936Z,21.30
2022-09-28T23:48:54.184Z,21.29
2022-09-28T23:53:56.536Z,21.26
2022-09-28T23:56:41.963Z,21.23
2022-09-28T23:59:12.113Z,21.23
